Time;durP1;ratioP1;P1;durP2;ratioP2;P2;SDS_P1;SDS_P2;PMS_P1;PMS_P2;Temp;Humidity;BMP_temperature;BMP_pressure;BME280_temperature;BME280_humidity;BME280_pressure;Samples;Min_cycle;Max_cycle;Signal;HPM_P1;HPM_P2
2021/12/01 00:00:00;;;;;;;10.55;4.50;;;;;;;;;;5033440;28;20717;-62
2021/12/01 00:02:28;;;;;;;8.15;4.70;;;;;;;;;;5033479;28;20292;-62
2021/12/01 00:04:55;;;;;;;8.25;4.90;;;;;;;;;;5033557;28;20690;-63
2021/12/01 00:07:23;;;;;;;7.15;4.88;;;;;;;;;;5033902;28;20293;-61
2021/12/01 00:09:51;;;;;;;9.57;5.63;;;;;;;;;;5034709;28;20277;-61
2021/12/01 00:12:18;;;;;;;9.35;4.70;;;;;;;;;;5033465;28;20202;-61
2021/12/01 00:14:46;;;;;;;7.70;5.18;;;;;;;;;;5033525;28;20721;-62
2021/12/01 00:17:15;;;;;;;10.30;4.88;;;;;;;;;;5033174;28;20233;-62
2021/12/01 00:19:42;;;;;;;13.75;4.90;;;;;;;;;;5033442;28;20700;-61
2021/12/01 00:22:10;;;;;;;9.23;4.95;;;;;;;;;;5033568;28;20298;-61
2021/12/01 00:24:37;;;;;;;12.27;5.50;;;;;;;;;;5035563;28;20674;-61
2021/12/01 00:27:05;;;;;;;9.40;5.03;;;;;;;;;;5037746;28;20292;-61
2021/12/01 00:29:32;;;;;;;10.15;4.78;;;;;;;;;;5037296;28;20269;-62
2021/12/01 00:31:59;;;;;;;9.93;5.00;;;;;;;;;;5037732;28;20221;-63
2021/12/01 00:34:28;;;;;;;8.98;5.25;;;;;;;;;;5036922;28;20313;-62
2021/12/01 00:36:56;;;;;;;6.82;4.63;;;;;;;;;;5037295;28;20285;-61
2021/12/01 00:39:23;;;;;;;9.23;4.47;;;;;;;;;;5037283;28;20202;-62
2021/12/01 00:41:51;;;;;;;9.90;5.28;;;;;;;;;;5037019;28;20293;-61
2021/12/01 00:44:19;;;;;;;11.05;5.13;;;;;;;;;;5037463;28;20225;-61
2021/12/01 00:46:54;;;;;;;9.10;4.88;;;;;;;;;;5037235;28;20634;-62
2021/12/01 00:49:22;;;;;;;11.50;4.70;;;;;;;;;;5037870;28;20191;-62
2021/12/01 00:51:51;;;;;;;7.45;4.53;;;;;;;;;;5037248;28;20238;-62
2021/12/01 00:54:18;;;;;;;8.77;5.32;;;;;;;;;;5037144;28;20309;-61
2021/12/01 00:56:46;;;;;;;8.63;4.75;;;;;;;;;;5037144;28;20589;-62
2021/12/01 00:59:14;;;;;;;8.57;4.65;;;;;;;;;;5036570;28;20702;-62
2021/12/01 01:01:41;;;;;;;8.70;4.95;;;;;;;;;;5039562;28;20290;-64
2021/12/01 01:04:09;;;;;;;4.97;4.47;;;;;;;;;;5039174;28;20721;-62
2021/12/01 01:06:37;;;;;;;7.43;4.25;;;;;;;;;;5037295;28;20285;-61
2021/12/01 01:09:07;;;;;;;5.32;4.15;;;;;;;;;;5037041;28;20257;-62
2021/12/01 01:17:07;;;;;;;6.35;4.30;;;;;;;;;;5037198;28;20594;-61
2021/12/01 01:19:34;;;;;;;6.18;4.88;;;;;;;;;;5036516;28;20246;-61
2021/12/01 01:22:03;;;;;;;5.85;4.43;;;;;;;;;;5036318;28;20745;-60
2021/12/01 01:24:32;;;;;;;7.20;4.65;;;;;;;;;;5036089;28;20581;-61
2021/12/01 01:26:59;;;;;;;5.68;4.40;;;;;;;;;;5036216;28;20299;-60
2021/12/01 01:29:27;;;;;;;5.65;4.85;;;;;;;;;;5036086;28;20601;-61
2021/12/01 01:31:56;;;;;;;5.35;4.80;;;;;;;;;;5036271;28;20196;-60
2021/12/01 01:34:24;;;;;;;5.35;4.50;;;;;;;;;;5036047;28;20272;-60
2021/12/01 01:36:51;;;;;;;6.68;5.15;;;;;;;;;;5035245;28;20299;-61
2021/12/01 01:39:19;;;;;;;6.28;4.80;;;;;;;;;;5035852;28;20293;-61
2021/12/01 01:41:48;;;;;;;6.07;4.80;;;;;;;;;;5036226;28;20266;-61
2021/12/01 01:44:15;;;;;;;9.90;6.70;;;;;;;;;;5035875;28;20746;-60
2021/12/01 01:46:43;;;;;;;6.45;4.80;;;;;;;;;;5035963;28;20677;-62
2021/12/01 01:49:16;;;;;;;6.82;4.78;;;;;;;;;;5035680;28;20293;-61
2021/12/01 01:51:44;;;;;;;5.07;4.07;;;;;;;;;;5036040;28;20237;-61
2021/12/01 01:54:12;;;;;;;4.75;4.35;;;;;;;;;;5035992;28;20319;-60
2021/12/01 01:56:40;;;;;;;5.65;4.15;;;;;;;;;;5036075;28;20238;-60
2021/12/01 01:59:09;;;;;;;5.82;4.20;;;;;;;;;;5035611;28;20235;-61
2021/12/01 02:01:44;;;;;;;4.55;4.03;;;;;;;;;;5035420;28;20253;-61
2021/12/01 02:04:12;;;;;;;7.60;3.85;;;;;;;;;;5036038;28;20189;-60
2021/12/01 02:06:39;;;;;;;5.40;4.18;;;;;;;;;;5035878;28;20209;-60
2021/12/01 02:09:08;;;;;;;5.05;3.90;;;;;;;;;;5035796;28;20206;-61
2021/12/01 02:11:35;;;;;;;5.82;3.40;;;;;;;;;;5035526;28;20698;-61
2021/12/01 02:14:03;;;;;;;3.97;3.00;;;;;;;;;;5035193;28;20308;-60
2021/12/01 02:16:31;;;;;;;4.75;3.90;;;;;;;;;;5035392;28;20307;-60
2021/12/01 02:18:59;;;;;;;3.92;3.53;;;;;;;;;;5035123;28;20245;-60
2021/12/01 02:21:28;;;;;;;4.30;3.28;;;;;;;;;;5035504;28;20258;-60
2021/12/01 02:23:57;;;;;;;3.78;3.22;;;;;;;;;;5045226;28;20269;-62
2021/12/01 02:26:25;;;;;;;4.60;3.85;;;;;;;;;;5052114;28;20213;-60
2021/12/01 02:28:54;;;;;;;3.25;2.55;;;;;;;;;;5053000;28;20209;-61
2021/12/01 02:31:25;;;;;;;3.55;2.90;;;;;;;;;;5051835;28;20266;-60
2021/12/01 02:33:53;;;;;;;3.17;2.85;;;;;;;;;;5038045;28;20213;-61
2021/12/01 02:36:21;;;;;;;3.97;3.10;;;;;;;;;;5035437;28;20206;-61
2021/12/01 02:38:51;;;;;;;4.38;3.45;;;;;;;;;;5035137;28;20296;-61
2021/12/01 02:41:18;;;;;;;3.13;2.83;;;;;;;;;;5035216;28;20309;-60
2021/12/01 02:43:47;;;;;;;3.05;2.75;;;;;;;;;;5034968;28;20725;-61
2021/12/01 02:46:14;;;;;;;2.88;2.67;;;;;;;;;;5034702;28;20740;-60
2021/12/01 02:48:42;;;;;;;3.75;2.67;;;;;;;;;;5033749;28;20202;-61
2021/12/01 02:51:11;;;;;;;5.72;2.80;;;;;;;;;;5034860;28;20309;-61
2021/12/01 02:53:38;;;;;;;2.90;2.70;;;;;;;;;;5034463;28;20203;-61
2021/12/01 02:56:08;;;;;;;2.60;2.28;;;;;;;;;;5034658;28;20694;-59
2021/12/01 02:58:40;;;;;;;2.70;2.13;;;;;;;;;;5034596;28;20255;-60
2021/12/01 03:01:08;;;;;;;3.30;2.70;;;;;;;;;;5034360;28;20276;-61
2021/12/01 03:03:37;;;;;;;2.58;2.30;;;;;;;;;;5034801;28;20290;-61
2021/12/01 03:06:04;;;;;;;2.50;2.05;;;;;;;;;;5034708;28;20282;-61
2021/12/01 03:08:31;;;;;;;2.85;2.60;;;;;;;;;;5034578;28;20248;-61
2021/12/01 03:10:59;;;;;;;2.65;2.45;;;;;;;;;;5034515;28;20286;-61
2021/12/01 03:13:28;;;;;;;2.20;2.00;;;;;;;;;;5034240;28;20303;-61
2021/12/01 03:15:55;;;;;;;2.40;2.20;;;;;;;;;;5034183;28;20265;-60
2021/12/01 03:18:24;;;;;;;2.55;2.20;;;;;;;;;;5034544;28;20295;-59
2021/12/01 03:20:52;;;;;;;2.20;2.00;;;;;;;;;;5034010;28;20310;-60
2021/12/01 03:23:20;;;;;;;2.30;2.00;;;;;;;;;;5034284;28;20285;-61
2021/12/01 03:25:47;;;;;;;1.80;1.70;;;;;;;;;;5033950;28;20709;-61
2021/12/01 03:28:15;;;;;;;4.32;1.70;;;;;;;;;;5033833;28;20297;-61
2021/12/01 03:30:44;;;;;;;3.55;2.00;;;;;;;;;;5033606;28;20321;-61
2021/12/01 03:33:12;;;;;;;2.10;1.88;;;;;;;;;;5038132;28;20291;-61
2021/12/01 03:35:41;;;;;;;3.45;1.90;;;;;;;;;;5037078;28;20265;-62
2021/12/01 03:38:08;;;;;;;1.40;1.30;;;;;;;;;;5033879;28;20229;-61
2021/12/01 03:40:36;;;;;;;1.98;1.50;;;;;;;;;;5033842;28;20268;-61
2021/12/01 03:43:03;;;;;;;1.40;1.30;;;;;;;;;;5033868;28;20264;-60
2021/12/01 03:45:31;;;;;;;1.30;1.20;;;;;;;;;;5033470;28;20701;-61
2021/12/01 03:48:00;;;;;;;1.75;1.60;;;;;;;;;;5033505;28;20198;-60
2021/12/01 03:50:28;;;;;;;1.90;1.60;;;;;;;;;;5033843;28;20313;-61
2021/12/01 03:52:55;;;;;;;2.38;1.90;;;;;;;;;;5033848;28;20265;-62
2021/12/01 03:55:22;;;;;;;2.35;2.15;;;;;;;;;;5033739;28;20634;-61
2021/12/01 03:57:50;;;;;;;2.45;2.22;;;;;;;;;;5033441;28;20289;-61
2021/12/01 04:00:18;;;;;;;2.65;2.45;;;;;;;;;;5033389;28;20309;-61
2021/12/01 04:02:46;;;;;;;3.00;2.70;;;;;;;;;;5033988;28;20295;-61
2021/12/01 04:05:15;;;;;;;2.70;2.50;;;;;;;;;;5033495;28;20768;-61
2021/12/01 04:08:58;;;;;;;3.20;2.80;;;;;;;;;;5112442;27;21059;-61
2021/12/01 04:11:25;;;;;;;3.17;2.90;;;;;;;;;;5111334;28;20745;-62
2021/12/01 04:13:56;;;;;;;3.30;2.83;;;;;;;;;;5111647;28;20206;-61
2021/12/01 04:16:23;;;;;;;2.90;2.70;;;;;;;;;;5111553;28;20209;-63
2021/12/01 04:18:51;;;;;;;3.63;3.33;;;;;;;;;;5112852;28;20224;-62
2021/12/01 04:21:20;;;;;;;3.42;3.00;;;;;;;;;;5111438;28;20254;-61
2021/12/01 04:23:47;;;;;;;2.85;2.63;;;;;;;;;;5111440;28;20195;-61
2021/12/01 04:26:20;;;;;;;3.42;3.13;;;;;;;;;;5111468;28;20253;-61
2021/12/01 04:28:47;;;;;;;2.88;2.67;;;;;;;;;;5111474;28;20208;-61
2021/12/01 04:31:15;;;;;;;2.72;2.45;;;;;;;;;;5111077;28;20318;-63
2021/12/01 04:33:42;;;;;;;3.00;2.72;;;;;;;;;;5111440;28;20200;-61
2021/12/01 04:36:10;;;;;;;2.60;2.40;;;;;;;;;;5111140;28;20204;-61
2021/12/01 04:38:37;;;;;;;2.22;2.05;;;;;;;;;;5111318;28;20621;-61
2021/12/01 04:41:07;;;;;;;2.58;2.35;;;;;;;;;;5111490;28;20303;-62
2021/12/01 04:43:37;;;;;;;2.58;2.38;;;;;;;;;;5111329;28;20652;-63
2021/12/01 04:46:04;;;;;;;2.15;2.05;;;;;;;;;;5111222;28;20294;-62
2021/12/01 04:48:32;;;;;;;2.13;1.90;;;;;;;;;;5111466;28;20647;-62
2021/12/01 04:51:01;;;;;;;1.48;1.35;;;;;;;;;;5110779;28;20315;-61
2021/12/01 04:53:32;;;;;;;2.25;2.10;;;;;;;;;;5110693;28;20278;-62
2021/12/01 04:55:59;;;;;;;1.50;1.40;;;;;;;;;;5110897;28;20195;-62
2021/12/01 04:58:27;;;;;;;1.88;1.58;;;;;;;;;;5111236;28;20234;-62
2021/12/01 05:00:59;;;;;;;1.48;1.38;;;;;;;;;;5112183;28;20226;-62
2021/12/01 05:03:26;;;;;;;1.95;1.33;;;;;;;;;;5114021;28;20223;-61
2021/12/01 05:05:54;;;;;;;2.85;1.60;;;;;;;;;;5112409;28;20655;-62
2021/12/01 05:08:22;;;;;;;1.65;1.40;;;;;;;;;;5111888;28;20302;-62
2021/12/01 05:10:50;;;;;;;3.00;1.60;;;;;;;;;;5112909;28;20264;-61
2021/12/01 05:13:17;;;;;;;1.40;1.30;;;;;;;;;;5112148;28;20290;-62
2021/12/01 05:15:45;;;;;;;1.60;1.50;;;;;;;;;;5113000;28;20247;-61
2021/12/01 05:18:14;;;;;;;2.00;1.70;;;;;;;;;;5110702;28;20284;-62
2021/12/01 05:20:41;;;;;;;1.50;1.40;;;;;;;;;;5097488;28;20375;-63
2021/12/01 05:23:08;;;;;;;1.92;1.83;;;;;;;;;;5098112;28;20268;-62
2021/12/01 05:25:36;;;;;;;1.80;1.70;;;;;;;;;;5098340;28;20672;-60
2021/12/01 05:28:03;;;;;;;1.67;1.58;;;;;;;;;;5101098;28;20279;-60
2021/12/01 05:30:31;;;;;;;1.60;1.25;;;;;;;;;;5099286;28;20266;-61
2021/12/01 05:33:04;;;;;;;1.92;1.58;;;;;;;;;;5098690;28;20292;-60
2021/12/01 05:35:33;;;;;;;1.40;1.30;;;;;;;;;;5098418;28;20248;-61
2021/12/01 05:38:01;;;;;;;2.67;1.50;;;;;;;;;;5097368;28;20260;-61
2021/12/01 05:40:28;;;;;;;1.00;0.90;;;;;;;;;;5096562;28;20307;-61
2021/12/01 05:42:55;;;;;;;0.98;0.93;;;;;;;;;;5095805;28;20687;-61
2021/12/01 05:45:23;;;;;;;1.40;1.30;;;;;;;;;;5096255;28;20290;-61
2021/12/01 05:47:51;;;;;;;1.08;0.77;;;;;;;;;;5096513;28;20292;-61
2021/12/01 05:50:18;;;;;;;2.97;1.20;;;;;;;;;;5096453;28;20400;-61
2021/12/01 05:52:47;;;;;;;0.93;0.90;;;;;;;;;;5096110;28;20300;-61
2021/12/01 05:55:14;;;;;;;3.17;2.10;;;;;;;;;;5095910;28;20249;-61
2021/12/01 05:57:42;;;;;;;3.45;0.90;;;;;;;;;;5095850;28;20283;-62
2021/12/01 06:00:11;;;;;;;1.75;1.00;;;;;;;;;;5095478;28;20262;-63
2021/12/01 06:02:41;;;;;;;1.20;1.10;;;;;;;;;;5095062;28;20388;-60
2021/12/01 06:05:09;;;;;;;0.98;0.80;;;;;;;;;;5098982;28;20204;-62
2021/12/01 06:07:36;;;;;;;1.25;0.80;;;;;;;;;;5098635;28;20771;-61
2021/12/01 06:10:06;;;;;;;1.00;0.77;;;;;;;;;;5095645;28;20723;-61
2021/12/01 06:12:34;;;;;;;1.63;0.80;;;;;;;;;;5095531;28;20196;-61
2021/12/01 06:15:03;;;;;;;0.95;0.95;;;;;;;;;;5095948;28;20201;-62
2021/12/01 06:17:30;;;;;;;1.95;0.98;;;;;;;;;;5095855;28;20678;-63
2021/12/01 06:19:57;;;;;;;2.20;0.90;;;;;;;;;;5095444;28;20353;-61
2021/12/01 06:22:25;;;;;;;1.45;0.88;;;;;;;;;;5095806;28;20231;-62
2021/12/01 06:24:52;;;;;;;0.77;0.65;;;;;;;;;;5095023;28;20232;-60
2021/12/01 06:27:22;;;;;;;0.80;0.77;;;;;;;;;;5095400;28;20294;-62
2021/12/01 06:29:50;;;;;;;1.20;0.90;;;;;;;;;;5095303;28;20281;-62
2021/12/01 06:32:17;;;;;;;1.48;0.85;;;;;;;;;;5094397;28;20719;-62
2021/12/01 06:34:45;;;;;;;1.00;0.90;;;;;;;;;;5095379;28;20249;-62
2021/12/01 06:37:12;;;;;;;1.80;1.00;;;;;;;;;;5095120;28;20239;-61
2021/12/01 06:39:39;;;;;;;1.40;1.13;;;;;;;;;;5094909;28;20259;-60
2021/12/01 06:42:07;;;;;;;0.80;0.80;;;;;;;;;;5094807;28;20727;-61
2021/12/01 06:44:36;;;;;;;1.60;1.10;;;;;;;;;;5094970;28;20283;-61
2021/12/01 06:47:03;;;;;;;0.88;0.82;;;;;;;;;;5094665;28;20211;-61
2021/12/01 06:49:31;;;;;;;1.20;1.02;;;;;;;;;;5094709;28;20307;-61
2021/12/01 06:51:58;;;;;;;1.60;1.15;;;;;;;;;;5094432;28;20238;-61
2021/12/01 06:54:26;;;;;;;1.35;1.20;;;;;;;;;;5095008;28;20204;-61
2021/12/01 06:56:53;;;;;;;1.08;0.98;;;;;;;;;;5094169;28;20777;-61
2021/12/01 06:59:21;;;;;;;1.90;1.30;;;;;;;;;;5094051;28;20239;-62
2021/12/01 07:01:49;;;;;;;2.13;0.98;;;;;;;;;;5094705;28;20232;-61
2021/12/01 07:04:17;;;;;;;1.10;1.00;;;;;;;;;;5094674;28;20229;-61
2021/12/01 07:06:44;;;;;;;1.30;1.20;;;;;;;;;;5094432;28;20234;-61
2021/12/01 07:09:18;;;;;;;1.20;1.10;;;;;;;;;;5096703;28;20270;-62
2021/12/01 07:11:45;;;;;;;1.80;0.93;;;;;;;;;;5095007;28;20701;-62
2021/12/01 07:14:13;;;;;;;1.38;1.27;;;;;;;;;;5095607;28;20602;-61
2021/12/01 07:16:40;;;;;;;1.10;1.00;;;;;;;;;;5095931;28;20398;-61
2021/12/01 07:19:09;;;;;;;1.15;1.05;;;;;;;;;;5095280;28;20200;-61
2021/12/01 07:21:36;;;;;;;1.95;1.17;;;;;;;;;;5094192;28;20306;-61
2021/12/01 07:24:04;;;;;;;1.40;1.30;;;;;;;;;;5093879;28;20335;-61
2021/12/01 07:26:35;;;;;;;1.73;1.35;;;;;;;;;;5094010;28;20200;-62
2021/12/01 07:29:02;;;;;;;1.08;0.90;;;;;;;;;;5093945;28;20228;-63
2021/12/01 07:31:30;;;;;;;1.33;1.20;;;;;;;;;;5094011;28;20327;-63
2021/12/01 07:33:57;;;;;;;2.40;1.60;;;;;;;;;;5094365;28;20290;-64
2021/12/01 07:36:26;;;;;;;1.40;1.30;;;;;;;;;;5094067;28;20206;-62
2021/12/01 07:38:54;;;;;;;1.20;1.00;;;;;;;;;;5094301;28;20196;-62
2021/12/01 07:41:21;;;;;;;2.50;1.40;;;;;;;;;;5094396;28;20610;-62
2021/12/01 07:43:49;;;;;;;1.77;1.50;;;;;;;;;;5094079;28;20294;-63
2021/12/01 07:46:16;;;;;;;2.78;1.30;;;;;;;;;;5094309;28;20228;-64
2021/12/01 07:48:44;;;;;;;1.35;1.15;;;;;;;;;;5093540;28;20303;-62
2021/12/01 07:51:12;;;;;;;1.33;1.20;;;;;;;;;;5094605;28;20315;-63
2021/12/01 07:53:41;;;;;;;1.98;1.35;;;;;;;;;;5094350;28;20204;-63
2021/12/01 07:56:09;;;;;;;1.65;1.55;;;;;;;;;;5093623;28;20247;-62
2021/12/01 07:58:36;;;;;;;1.25;1.15;;;;;;;;;;5094343;28;20245;-63
2021/12/01 08:01:04;;;;;;;1.20;1.10;;;;;;;;;;5093465;28;20750;-61
2021/12/01 08:03:31;;;;;;;1.60;1.50;;;;;;;;;;5093881;28;20200;-62
2021/12/01 08:05:58;;;;;;;1.85;1.40;;;;;;;;;;5093261;28;20236;-63
2021/12/01 08:08:26;;;;;;;2.33;1.20;;;;;;;;;;5093303;28;20666;-62
2021/12/01 08:10:55;;;;;;;1.95;1.15;;;;;;;;;;5094003;28;20266;-61
2021/12/01 08:13:22;;;;;;;2.88;1.00;;;;;;;;;;5092874;28;20725;-62
2021/12/01 08:15:50;;;;;;;2.28;1.15;;;;;;;;;;5093411;28;20295;-64
2021/12/01 08:18:18;;;;;;;0.98;0.80;;;;;;;;;;5093049;28;20200;-63
2021/12/01 08:20:45;;;;;;;1.30;0.98;;;;;;;;;;5097496;28;20223;-62
2021/12/01 08:23:13;;;;;;;1.10;1.00;;;;;;;;;;5100595;28;20200;-62
2021/12/01 08:25:40;;;;;;;1.00;0.80;;;;;;;;;;5101381;28;20239;-62
2021/12/01 08:28:09;;;;;;;1.30;1.05;;;;;;;;;;5100152;28;20228;-62
2021/12/01 08:30:36;;;;;;;0.90;0.88;;;;;;;;;;5096490;28;20252;-62
2021/12/01 08:33:04;;;;;;;2.50;1.05;;;;;;;;;;5094752;28;20270;-63
2021/12/01 08:35:32;;;;;;;1.20;1.10;;;;;;;;;;5093991;28;20291;-63
2021/12/01 08:37:59;;;;;;;1.10;0.95;;;;;;;;;;5093871;28;20223;-63
2021/12/01 08:40:27;;;;;;;1.38;1.08;;;;;;;;;;5098908;28;20221;-63
2021/12/01 08:42:55;;;;;;;0.90;0.80;;;;;;;;;;5095610;28;20236;-63
2021/12/01 08:45:24;;;;;;;1.25;1.15;;;;;;;;;;5093124;28;20500;-61
2021/12/01 08:47:51;;;;;;;1.17;0.85;;;;;;;;;;5093443;28;20287;-61
2021/12/01 08:50:19;;;;;;;1.83;1.23;;;;;;;;;;5093444;28;20221;-63
2021/12/01 08:52:48;;;;;;;0.88;0.70;;;;;;;;;;5093980;28;20210;-63
2021/12/01 08:55:15;;;;;;;1.20;1.02;;;;;;;;;;5096313;28;20200;-62
2021/12/01 08:57:42;;;;;;;1.08;0.88;;;;;;;;;;5096807;28;20308;-63
2021/12/01 09:00:10;;;;;;;1.30;1.10;;;;;;;;;;5096766;28;20307;-61
2021/12/01 09:02:39;;;;;;;1.05;0.85;;;;;;;;;;5096448;28;20752;-63
2021/12/01 09:05:07;;;;;;;2.00;1.00;;;;;;;;;;5096957;28;20287;-62
2021/12/01 09:07:35;;;;;;;1.98;1.67;;;;;;;;;;5096540;28;20212;-62
2021/12/01 09:10:02;;;;;;;1.10;1.00;;;;;;;;;;5096222;28;20319;-63
2021/12/01 09:12:29;;;;;;;1.20;1.10;;;;;;;;;;5096328;28;20653;-63
2021/12/01 09:14:57;;;;;;;1.67;1.45;;;;;;;;;;5096754;28;20220;-62
2021/12/01 09:17:25;;;;;;;1.75;1.50;;;;;;;;;;5096953;28;20253;-63
2021/12/01 09:19:54;;;;;;;1.60;1.23;;;;;;;;;;5096882;28;20252;-63
2021/12/01 09:22:22;;;;;;;1.23;1.10;;;;;;;;;;5096534;28;20200;-64
2021/12/01 09:24:49;;;;;;;0.90;0.90;;;;;;;;;;5096807;28;20295;-65
2021/12/01 09:27:17;;;;;;;1.27;1.10;;;;;;;;;;5096601;28;20672;-65
2021/12/01 09:29:45;;;;;;;2.30;1.30;;;;;;;;;;5097223;28;20307;-64
2021/12/01 09:32:12;;;;;;;1.95;1.63;;;;;;;;;;5096982;28;20292;-65
2021/12/01 09:34:41;;;;;;;1.33;1.15;;;;;;;;;;5096750;28;20201;-65
2021/12/01 09:37:10;;;;;;;1.17;1.00;;;;;;;;;;5096266;28;20686;-64
2021/12/01 09:39:37;;;;;;;1.30;1.15;;;;;;;;;;5096355;28;20256;-64
2021/12/01 09:42:05;;;;;;;1.38;1.27;;;;;;;;;;5095910;28;20232;-64
2021/12/01 09:44:34;;;;;;;2.20;1.25;;;;;;;;;;5096243;28;20687;-63
2021/12/01 09:47:01;;;;;;;3.17;1.42;;;;;;;;;;5096097;28;20200;-64
2021/12/01 09:49:28;;;;;;;1.73;1.25;;;;;;;;;;5095725;28;20735;-63
2021/12/01 09:51:56;;;;;;;1.00;0.80;;;;;;;;;;5095963;28;20291;-64
2021/12/01 09:54:25;;;;;;;1.88;0.90;;;;;;;;;;5096198;28;20639;-64
2021/12/01 09:56:52;;;;;;;0.90;0.80;;;;;;;;;;5096758;28;20287;-63
2021/12/01 09:59:20;;;;;;;1.00;0.90;;;;;;;;;;5096175;28;20231;-63
2021/12/01 10:01:47;;;;;;;2.05;1.15;;;;;;;;;;5096452;28;20269;-63
2021/12/01 10:04:15;;;;;;;3.25;1.25;;;;;;;;;;5095989;28;20228;-63
2021/12/01 10:06:42;;;;;;;1.70;1.17;;;;;;;;;;5095488;28;20625;-62
2021/12/01 10:09:11;;;;;;;1.58;1.23;;;;;;;;;;5096046;28;20618;-64
2021/12/01 10:11:41;;;;;;;0.93;0.82;;;;;;;;;;5095922;28;20204;-64
2021/12/01 10:14:10;;;;;;;0.80;0.75;;;;;;;;;;5095670;28;20254;-64
2021/12/01 10:16:38;;;;;;;1.00;0.88;;;;;;;;;;5095969;28;20613;-63
2021/12/01 10:19:07;;;;;;;1.50;0.88;;;;;;;;;;5095527;28;20346;-63
2021/12/01 10:21:36;;;;;;;0.95;0.90;;;;;;;;;;5093604;22;20261;-57
2021/12/01 10:24:05;;;;;;;0.70;0.63;;;;;;;;;;5034592;28;20644;-57
2021/12/01 10:26:34;;;;;;;2.47;1.10;;;;;;;;;;5034629;28;20202;-56
2021/12/01 10:29:05;;;;;;;2.63;0.85;;;;;;;;;;5034371;28;20262;-56
2021/12/01 10:31:34;;;;;;;0.70;0.70;;;;;;;;;;5034656;28;20218;-58
2021/12/01 10:34:14;;;;;;;1.00;0.90;;;;;;;;;;5034542;28;20289;-57
2021/12/01 10:36:41;;;;;;;1.15;0.70;;;;;;;;;;5034339;28;20233;-57
2021/12/01 10:39:09;;;;;;;1.10;0.93;;;;;;;;;;5034282;28;20293;-56
2021/12/01 10:41:37;;;;;;;0.73;0.65;;;;;;;;;;5034960;28;20681;-57
2021/12/01 10:44:11;;;;;;;1.23;1.00;;;;;;;;;;5034665;28;20222;-56
2021/12/01 10:46:45;;;;;;;0.80;0.73;;;;;;;;;;5034261;28;20224;-58
2021/12/01 10:49:13;;;;;;;1.30;1.20;;;;;;;;;;5033775;28;20325;-57
2021/12/01 10:51:41;;;;;;;1.15;0.80;;;;;;;;;;5034117;28;20254;-57
2021/12/01 10:54:14;;;;;;;1.05;0.88;;;;;;;;;;5033504;28;20708;-57
2021/12/01 10:56:42;;;;;;;2.53;0.90;;;;;;;;;;5033513;28;20606;-57
2021/12/01 10:59:14;;;;;;;1.33;0.82;;;;;;;;;;5033946;28;20241;-58
2021/12/01 11:01:42;;;;;;;0.95;0.90;;;;;;;;;;5033476;28;20777;-57
2021/12/01 11:04:09;;;;;;;0.93;0.70;;;;;;;;;;5033644;28;20293;-57
2021/12/01 11:06:44;;;;;;;3.53;2.15;;;;;;;;;;5033555;28;20256;-57
2021/12/01 11:09:14;;;;;;;1.00;0.80;;;;;;;;;;5033440;28;20214;-57
2021/12/01 11:11:43;;;;;;;1.70;0.82;;;;;;;;;;5033439;28;20710;-57
2021/12/01 11:14:12;;;;;;;1.98;0.80;;;;;;;;;;5033784;28;20202;-56
2021/12/01 11:16:41;;;;;;;1.20;1.10;;;;;;;;;;5033036;28;20230;-57
2021/12/01 11:19:09;;;;;;;1.77;0.90;;;;;;;;;;5033123;28;20297;-57
2021/12/01 11:21:38;;;;;;;1.60;0.85;;;;;;;;;;5033219;28;20316;-57
2021/12/01 11:24:08;;;;;;;0.82;0.68;;;;;;;;;;5033114;28;20210;-57
2021/12/01 11:26:36;;;;;;;1.70;0.75;;;;;;;;;;5033255;28;20202;-57
2021/12/01 11:29:05;;;;;;;1.08;0.80;;;;;;;;;;5033522;28;20289;-57
2021/12/01 11:31:33;;;;;;;1.15;0.80;;;;;;;;;;5033508;28;20329;-57
2021/12/01 11:34:04;;;;;;;0.60;0.50;;;;;;;;;;5033035;28;20205;-57
2021/12/01 11:36:32;;;;;;;2.25;1.35;;;;;;;;;;5033258;28;20293;-57
2021/12/01 11:39:00;;;;;;;1.35;0.95;;;;;;;;;;5033124;28;20230;-57
2021/12/01 11:41:28;;;;;;;0.93;0.85;;;;;;;;;;5032769;28;20322;-57
2021/12/01 11:43:57;;;;;;;1.35;0.80;;;;;;;;;;5032874;28;20210;-56
2021/12/01 11:46:24;;;;;;;1.52;0.80;;;;;;;;;;5032935;28;20293;-57
2021/12/01 11:48:53;;;;;;;1.35;0.60;;;;;;;;;;5032757;28;20787;-56
2021/12/01 11:51:23;;;;;;;1.10;0.80;;;;;;;;;;5033083;28;20253;-56
2021/12/01 11:53:54;;;;;;;0.90;0.70;;;;;;;;;;5033469;28;20293;-56
2021/12/01 11:56:25;;;;;;;1.00;0.60;;;;;;;;;;5033018;28;20182;-57
2021/12/01 11:59:04;;;;;;;1.52;0.60;;;;;;;;;;5032984;28;20244;-57
2021/12/01 12:01:45;;;;;;;1.98;0.65;;;;;;;;;;5032253;28;20233;-57
2021/12/01 12:04:27;;;;;;;1.00;0.70;;;;;;;;;;5032589;28;20229;-57
2021/12/01 12:07:00;;;;;;;1.00;0.70;;;;;;;;;;5020090;28;20305;-56
2021/12/01 12:09:28;;;;;;;2.00;1.08;;;;;;;;;;5032143;28;20242;-57
2021/12/01 12:11:57;;;;;;;0.70;0.60;;;;;;;;;;5032851;28;20269;-57
2021/12/01 12:14:25;;;;;;;1.20;1.00;;;;;;;;;;5032752;28;20234;-57
2021/12/01 12:17:12;;;;;;;0.80;0.70;;;;;;;;;;5032589;28;20298;-57
2021/12/01 12:20:02;;;;;;;0.80;0.80;;;;;;;;;;5032552;28;20504;-57
2021/12/01 12:22:36;;;;;;;2.13;0.82;;;;;;;;;;5031891;28;20539;-57
2021/12/01 12:25:05;;;;;;;1.20;0.80;;;;;;;;;;5032106;28;20612;-57
2021/12/01 12:27:38;;;;;;;0.93;0.70;;;;;;;;;;5032022;28;20647;-57
2021/12/01 12:30:06;;;;;;;0.95;0.80;;;;;;;;;;5036205;28;20692;-57
2021/12/01 12:32:34;;;;;;;1.50;0.77;;;;;;;;;;5036290;28;20316;-57
2021/12/01 12:35:03;;;;;;;1.47;0.70;;;;;;;;;;5036344;28;20292;-58
2021/12/01 12:37:35;;;;;;;1.60;0.80;;;;;;;;;;5036591;28;20524;-57
2021/12/01 12:40:03;;;;;;;0.70;0.70;;;;;;;;;;5037329;28;20245;-57
2021/12/01 12:42:31;;;;;;;1.50;0.80;;;;;;;;;;5036236;28;20246;-56
2021/12/01 12:44:59;;;;;;;0.80;0.77;;;;;;;;;;5036230;28;20297;-56
2021/12/01 12:47:30;;;;;;;1.23;0.93;;;;;;;;;;5036250;28;20213;-56
2021/12/01 12:50:00;;;;;;;0.75;0.60;;;;;;;;;;5036845;28;20206;-56
2021/12/01 12:52:39;;;;;;;1.43;0.90;;;;;;;;;;5036557;28;20613;-56
2021/12/01 12:55:08;;;;;;;2.70;1.20;;;;;;;;;;5035949;28;20909;-57
2021/12/01 12:57:49;;;;;;;0.70;0.70;;;;;;;;;;5036228;28;20225;-57
2021/12/01 13:00:17;;;;;;;1.35;0.73;;;;;;;;;;5037090;28;20982;-57
2021/12/01 13:02:45;;;;;;;2.20;1.08;;;;;;;;;;5035906;28;20329;-57
2021/12/01 13:05:12;;;;;;;0.70;0.60;;;;;;;;;;5036167;28;20245;-57
2021/12/01 13:07:48;;;;;;;0.95;0.65;;;;;;;;;;5035822;28;20726;-57
2021/12/01 13:10:17;;;;;;;1.67;0.77;;;;;;;;;;5035616;28;20206;-57
2021/12/01 13:12:46;;;;;;;1.00;0.68;;;;;;;;;;5035772;28;20325;-56
2021/12/01 13:15:21;;;;;;;1.52;0.70;;;;;;;;;;5035596;28;20293;-57
2021/12/01 13:17:48;;;;;;;1.35;0.88;;;;;;;;;;5036484;28;20300;-57
2021/12/01 13:20:18;;;;;;;0.73;0.70;;;;;;;;;;5035797;28;20233;-57
2021/12/01 13:25:42;;;;;;;1.10;1.00;;;;;;;;;;5152446;27;20559;-57
2021/12/01 13:28:10;;;;;;;1.08;0.98;;;;;;;;;;5152173;27;20194;-58
2021/12/01 13:30:53;;;;;;;1.55;0.95;;;;;;;;;;5152445;27;20232;-56
2021/12/01 13:33:21;;;;;;;1.35;0.90;;;;;;;;;;5132040;28;20274;-57
2021/12/01 13:35:48;;;;;;;1.52;1.23;;;;;;;;;;5131394;28;20294;-56
2021/12/01 13:38:16;;;;;;;1.20;0.82;;;;;;;;;;5130891;28;20285;-56
2021/12/01 13:40:45;;;;;;;1.25;0.90;;;;;;;;;;5131562;28;20245;-55
2021/12/01 13:43:19;;;;;;;0.80;0.75;;;;;;;;;;5130927;27;20199;-57
2021/12/01 13:45:56;;;;;;;0.90;0.88;;;;;;;;;;5130643;28;20199;-57
2021/12/01 13:48:23;;;;;;;1.05;0.95;;;;;;;;;;5130873;28;20281;-57
2021/12/01 13:50:51;;;;;;;2.03;1.23;;;;;;;;;;5131170;27;20235;-57
2021/12/01 13:53:18;;;;;;;2.72;1.20;;;;;;;;;;5131377;27;20223;-57
2021/12/01 13:55:47;;;;;;;1.25;1.15;;;;;;;;;;5130671;28;20357;-57
2021/12/01 13:58:16;;;;;;;1.45;1.00;;;;;;;;;;5130644;27;20195;-57
2021/12/01 14:00:44;;;;;;;1.10;0.90;;;;;;;;;;5131036;27;20317;-57
2021/12/01 14:03:12;;;;;;;1.75;1.05;;;;;;;;;;5130532;28;20200;-57
2021/12/01 14:05:43;;;;;;;1.88;1.13;;;;;;;;;;5130427;28;20215;-57
2021/12/01 14:08:13;;;;;;;1.65;1.20;;;;;;;;;;5130675;28;20195;-57
2021/12/01 14:10:47;;;;;;;1.15;0.98;;;;;;;;;;5130322;28;20199;-58
2021/12/01 14:13:14;;;;;;;1.67;1.15;;;;;;;;;;5130703;28;20194;-58
2021/12/01 14:15:42;;;;;;;1.30;1.05;;;;;;;;;;5130552;28;20213;-57
2021/12/01 14:18:10;;;;;;;1.80;1.10;;;;;;;;;;5130482;28;20214;-57
2021/12/01 14:20:38;;;;;;;1.70;1.00;;;;;;;;;;5129739;28;20199;-57
2021/12/01 14:23:06;;;;;;;1.50;1.40;;;;;;;;;;5130377;28;20230;-58
2021/12/01 14:25:33;;;;;;;1.38;1.17;;;;;;;;;;5129862;28;20229;-57
2021/12/01 14:28:08;;;;;;;1.65;1.38;;;;;;;;;;5129877;28;20662;-57
2021/12/01 14:30:36;;;;;;;3.28;1.20;;;;;;;;;;5129742;28;20183;-56
2021/12/01 14:33:03;;;;;;;1.88;1.10;;;;;;;;;;5129704;28;20705;-57
2021/12/01 14:35:30;;;;;;;2.08;1.15;;;;;;;;;;5124781;28;20355;-57
2021/12/01 14:37:58;;;;;;;1.33;1.23;;;;;;;;;;5116408;28;20203;-57
2021/12/01 14:40:25;;;;;;;2.38;1.40;;;;;;;;;;5116043;28;20203;-58
2021/12/01 14:42:54;;;;;;;3.63;1.05;;;;;;;;;;5115643;28;20215;-57
2021/12/01 14:45:24;;;;;;;2.05;1.05;;;;;;;;;;5115934;28;20216;-57
2021/12/01 14:48:01;;;;;;;3.42;1.33;;;;;;;;;;5116031;28;20207;-57
2021/12/01 14:50:29;;;;;;;2.28;1.10;;;;;;;;;;5115965;28;20217;-56
2021/12/01 14:52:57;;;;;;;1.60;1.33;;;;;;;;;;5115804;28;20687;-57
2021/12/01 14:55:25;;;;;;;3.30;1.17;;;;;;;;;;5115691;28;20667;-57
2021/12/01 14:57:54;;;;;;;2.75;1.13;;;;;;;;;;5116257;28;20680;-58
2021/12/01 15:00:23;;;;;;;2.33;1.50;;;;;;;;;;5116012;28;20679;-57